Aérodrome :
LOGIN :

S'inscrire | Disclaimer

   EN    FR    IT 

 










Légende :    VFR   VFR Marginal   IFR   IFR Intensif   IFR Très Intensif
Visi : 
Plafond : 
>= 8 km
>= 3000ft
5 à 8 km
1000 à 3000 ft
1500m à 5 km
500 à 1000 ft
800 à 1500m
200 à 500 ft
< 800m
< 200 ft
Symboles :   Orages  Brouillard  Fortes neiges  Fortes précipitations  Vent > 20 kt
SIGMETs :   Divers  Orages  Givrage  Turbulence  Onde Orograph.  Cendres Volcan.






- Altitude de l'aérodrome : 1090 ft
- Code IATA : CFE


LFLC - Clermont-Ferrand Auvergne

DERNIER METAR :
  • 190500Z AUTO 10002KT 5000 BR SCT006 OVC014 04/03 Q1016 TEMPO 2500 BR BKN008

METARs EXPIRÉS :
  • 190430Z AUTO 00000KT 5000 DZ BR SCT007 OVC013 03/03 Q1016 TEMPO 2500 BR BKN008
  • 190400Z AUTO VRB02KT 4500 BR SCT009 OVC014 04/03 Q1016 NOSIG
  • 190330Z AUTO 00000KT 7000 OVC014 04/03 Q1016 TEMPO 4000 -DZ
  • 190300Z AUTO 00000KT 9999 OVC013 04/03 Q1016 TEMPO 4000 -DZ
  • 190230Z AUTO 00000KT 9999 OVC015 04/03 Q1016 TEMPO 4000 -DZ BKN010

TAF TAF LFLC
Valide du 19 à 03h jusqu'au 20 à 03h UTC


190200Z 1903/2003 33005KT 9999 BKN025
TEMPO 1903/1915 4000 -DZ BKN010
PROB40
TEMPO 1906/1912 2500 BR BKN008
PROB30
TEMPO 1920/2003 3000 BR BKN008
ATIS : +33 4 73 62 74 38



MET'MAP, la Météo Aéronautique d'un coup d'oeil ! - Copyright ORBIFLY Décembre 2007 - Disclaimer

ORBIFLY MET'MAP TEAM :

Programmation & Développement : Alexandra Zaïnal
Conception & Développement : Baudouin d'Aumeries
Co-Programmation & Développement : Marc-Olivier Méhu
Soutien technique & logistique : Manuel Goepfert

Contact : metmap@orbifly.com




SOURCES & CREDITS :

   NOAA